sensor_id;sensor_type;location;lat;lon;timestamp;pressure;altitude;pressure_sealevel;temperature;humidity
60479;BME280;46321;48.398;11.754;2023-02-04T00:01:08;97428.47;;;5.10;87.69
60479;BME280;46321;48.398;11.754;2023-02-04T00:03:34;97426.34;;;5.15;87.69
60479;BME280;46321;48.398;11.754;2023-02-04T00:05:59;97430.63;;;5.16;87.88
60479;BME280;46321;48.398;11.754;2023-02-04T00:08:24;97435.03;;;5.15;87.62
60479;BME280;46321;48.398;11.754;2023-02-04T00:10:49;97443.03;;;5.14;88.03
60479;BME280;46321;48.398;11.754;2023-02-04T00:13:15;97436.84;;;5.15;87.92
60479;BME280;46321;48.398;11.754;2023-02-04T00:15:40;97448.75;;;5.19;87.98
60479;BME280;46321;48.398;11.754;2023-02-04T00:18:05;97439.47;;;5.15;87.48
60479;BME280;46321;48.398;11.754;2023-02-04T00:20:31;97440.88;;;5.19;87.14
60479;BME280;46321;48.398;11.754;2023-02-04T00:22:56;97449.00;;;5.16;87.26
60479;BME280;46321;48.398;11.754;2023-02-04T00:25:22;97458.06;;;5.12;87.00
60479;BME280;46321;48.398;11.754;2023-02-04T00:27:47;97458.06;;;5.12;86.39
60479;BME280;46321;48.398;11.754;2023-02-04T00:30:13;97460.91;;;5.20;86.02
60479;BME280;46321;48.398;11.754;2023-02-04T00:32:38;97462.81;;;5.18;85.73
60479;BME280;46321;48.398;11.754;2023-02-04T00:35:03;97465.81;;;5.25;85.48
60479;BME280;46321;48.398;11.754;2023-02-04T00:37:30;97475.00;;;5.19;85.29
60479;BME280;46321;48.398;11.754;2023-02-04T00:39:55;97470.69;;;5.18;84.68
60479;BME280;46321;48.398;11.754;2023-02-04T00:42:20;97472.38;;;5.19;84.55
60479;BME280;46321;48.398;11.754;2023-02-04T00:44:46;97481.19;;;5.07;84.17
60479;BME280;46321;48.398;11.754;2023-02-04T00:47:11;97481.81;;;5.10;84.19
60479;BME280;46321;48.398;11.754;2023-02-04T00:49:36;97479.03;;;5.00;84.23
60479;BME280;46321;48.398;11.754;2023-02-04T00:52:02;97492.41;;;5.09;83.58
60479;BME280;46321;48.398;11.754;2023-02-04T00:54:27;97501.69;;;5.01;83.35
60479;BME280;46321;48.398;11.754;2023-02-04T00:56:53;97496.28;;;4.91;81.82
60479;BME280;46321;48.398;11.754;2023-02-04T00:59:18;97507.66;;;5.03;81.35
60479;BME280;46321;48.398;11.754;2023-02-04T01:01:43;97520.75;;;4.92;82.21
60479;BME280;46321;48.398;11.754;2023-02-04T01:04:09;97510.00;;;4.84;81.46
60479;BME280;46321;48.398;11.754;2023-02-04T01:06:35;97529.50;;;4.79;81.93
60479;BME280;46321;48.398;11.754;2023-02-04T01:09:01;97522.88;;;4.87;81.43
60479;BME280;46321;48.398;11.754;2023-02-04T01:11:27;97514.66;;;4.91;81.26
60479;BME280;46321;48.398;11.754;2023-02-04T01:13:52;97523.50;;;4.90;81.00
60479;BME280;46321;48.398;11.754;2023-02-04T01:16:18;97533.59;;;4.84;81.67
60479;BME280;46321;48.398;11.754;2023-02-04T01:18:43;97529.81;;;4.88;81.37
60479;BME280;46321;48.398;11.754;2023-02-04T01:21:08;97533.69;;;4.82;81.77
60479;BME280;46321;48.398;11.754;2023-02-04T01:23:34;97527.00;;;4.78;81.31
60479;BME280;46321;48.398;11.754;2023-02-04T01:25:59;97526.75;;;4.69;81.58
60479;BME280;46321;48.398;11.754;2023-02-04T01:28:24;97534.03;;;4.77;81.19
60479;BME280;46321;48.398;11.754;2023-02-04T01:30:49;97527.13;;;4.76;80.84
60479;BME280;46321;48.398;11.754;2023-02-04T01:33:15;97532.84;;;4.70;81.13
60479;BME280;46321;48.398;11.754;2023-02-04T01:35:40;97547.38;;;4.74;81.06
60479;BME280;46321;48.398;11.754;2023-02-04T01:38:05;97547.38;;;4.74;81.11
60479;BME280;46321;48.398;11.754;2023-02-04T01:40:31;97547.88;;;4.79;80.68
60479;BME280;46321;48.398;11.754;2023-02-04T01:42:56;97548.13;;;4.76;81.27
60479;BME280;46321;48.398;11.754;2023-02-04T01:45:22;97549.28;;;4.72;81.56
60479;BME280;46321;48.398;11.754;2023-02-04T01:47:47;97542.69;;;4.66;82.01
60479;BME280;46321;48.398;11.754;2023-02-04T01:50:14;97548.56;;;4.70;82.13
60479;BME280;46321;48.398;11.754;2023-02-04T01:52:41;97559.66;;;4.74;82.06
60479;BME280;46321;48.398;11.754;2023-02-04T01:55:19;97553.56;;;4.73;82.42
60479;BME280;46321;48.398;11.754;2023-02-04T01:57:46;97560.97;;;4.68;83.48
60479;BME280;46321;48.398;11.754;2023-02-04T02:00:17;97560.97;;;4.68;83.35
60479;BME280;46321;48.398;11.754;2023-02-04T02:02:47;97559.88;;;4.70;83.33
60479;BME280;46321;48.398;11.754;2023-02-04T02:05:17;97564.78;;;4.75;83.24
60479;BME280;46321;48.398;11.754;2023-02-04T02:07:46;97570.16;;;4.74;83.03
60479;BME280;46321;48.398;11.754;2023-02-04T02:10:12;97561.69;;;4.70;83.39
60479;BME280;46321;48.398;11.754;2023-02-04T02:12:37;97573.59;;;4.50;83.49
60479;BME280;46321;48.398;11.754;2023-02-04T02:15:03;97582.38;;;4.62;82.41
60479;BME280;46321;48.398;11.754;2023-02-04T02:17:29;97573.34;;;4.66;82.13
60479;BME280;46321;48.398;11.754;2023-02-04T02:19:54;97576.69;;;4.68;82.45
60479;BME280;46321;48.398;11.754;2023-02-04T02:22:29;97577.97;;;4.62;82.05
60479;BME280;46321;48.398;11.754;2023-02-04T02:24:56;97581.44;;;4.63;81.96
60479;BME280;46321;48.398;11.754;2023-02-04T02:27:22;97583.31;;;4.61;81.73
60479;BME280;46321;48.398;11.754;2023-02-04T02:29:47;97586.16;;;4.57;81.08
60479;BME280;46321;48.398;11.754;2023-02-04T02:32:13;97586.41;;;4.54;80.94
60479;BME280;46321;48.398;11.754;2023-02-04T02:34:40;97582.81;;;4.55;80.21
60479;BME280;46321;48.398;11.754;2023-02-04T02:37:06;97590.06;;;4.52;80.63
60479;BME280;46321;48.398;11.754;2023-02-04T02:39:33;97597.22;;;4.50;80.55
60479;BME280;46321;48.398;11.754;2023-02-04T02:41:59;97591.31;;;4.46;80.17
60479;BME280;46321;48.398;11.754;2023-02-04T02:44:25;97599.28;;;4.57;79.94
60479;BME280;46321;48.398;11.754;2023-02-04T02:46:51;97599.19;;;4.46;79.27
60479;BME280;46321;48.398;11.754;2023-02-04T02:49:18;97597.09;;;4.51;79.26
60479;BME280;46321;48.398;11.754;2023-02-04T02:51:44;97605.94;;;4.37;79.12
60479;BME280;46321;48.398;11.754;2023-02-04T02:54:20;97601.97;;;4.31;79.43
60479;BME280;46321;48.398;11.754;2023-02-04T02:56:46;97609.22;;;4.28;78.98
60479;BME280;46321;48.398;11.754;2023-02-04T02:59:13;97601.97;;;4.31;78.19
60479;BME280;46321;48.398;11.754;2023-02-04T03:01:39;97604.19;;;4.24;78.33
60479;BME280;46321;48.398;11.754;2023-02-04T03:04:05;97609.75;;;4.20;78.28
60479;BME280;46321;48.398;11.754;2023-02-04T03:06:30;97610.34;;;4.23;77.99
60479;BME280;46321;48.398;11.754;2023-02-04T03:08:56;97609.75;;;4.20;77.60
60479;BME280;46321;48.398;11.754;2023-02-04T03:11:22;97615.44;;;4.00;78.39
60479;BME280;46321;48.398;11.754;2023-02-04T03:13:49;97610.50;;;4.09;78.52
60479;BME280;46321;48.398;11.754;2023-02-04T03:16:15;97620.97;;;4.09;78.30
60479;BME280;46321;48.398;11.754;2023-02-04T03:18:40;97623.06;;;4.04;78.71
60479;BME280;46321;48.398;11.754;2023-02-04T03:21:06;97622.97;;;4.05;78.52
60479;BME280;46321;48.398;11.754;2023-02-04T03:23:33;97621.91;;;3.95;78.72
60479;BME280;46321;48.398;11.754;2023-02-04T03:25:59;97639.53;;;3.93;79.47
60479;BME280;46321;48.398;11.754;2023-02-04T03:28:24;97636.41;;;3.87;79.54
60479;BME280;46321;48.398;11.754;2023-02-04T03:30:50;97643.28;;;3.88;79.85
60479;BME280;46321;48.398;11.754;2023-02-04T03:33:20;97651.56;;;3.69;79.82
60479;BME280;46321;48.398;11.754;2023-02-04T03:35:46;97650.31;;;3.75;79.54
60479;BME280;46321;48.398;11.754;2023-02-04T03:38:11;97658.38;;;3.72;79.68
60479;BME280;46321;48.398;11.754;2023-02-04T03:40:36;97666.97;;;3.74;79.37
60479;BME280;46321;48.398;11.754;2023-02-04T03:43:01;97675.75;;;3.73;79.37
60479;BME280;46321;48.398;11.754;2023-02-04T03:45:27;97673.56;;;3.66;79.42
60479;BME280;46321;48.398;11.754;2023-02-04T03:47:52;97681.59;;;3.63;79.24
60479;BME280;46321;48.398;11.754;2023-02-04T03:50:17;97690.41;;;3.62;79.33
60479;BME280;46321;48.398;11.754;2023-02-04T03:52:42;97698.69;;;3.56;79.47
60479;BME280;46321;48.398;11.754;2023-02-04T03:55:09;97705.38;;;3.47;79.73
60479;BME280;46321;48.398;11.754;2023-02-04T03:57:34;97714.25;;;3.45;79.54
60479;BME280;46321;48.398;11.754;2023-02-04T03:59:59;97700.63;;;3.39;80.17
60479;BME280;46321;48.398;11.754;2023-02-04T04:02:25;97710.53;;;3.34;80.03
60479;BME280;46321;48.398;11.754;2023-02-04T04:04:50;97716.84;;;3.31;80.64
60479;BME280;46321;48.398;11.754;2023-02-04T04:07:15;97720.09;;;3.35;80.43
60479;BME280;46321;48.398;11.754;2023-02-04T04:09:40;97723.88;;;3.44;80.26
60479;BME280;46321;48.398;11.754;2023-02-04T04:12:06;97716.88;;;3.45;80.38
60479;BME280;46321;48.398;11.754;2023-02-04T04:14:31;97727.06;;;3.49;80.28
60479;BME280;46321;48.398;11.754;2023-02-04T04:16:56;97718.25;;;3.50;80.55
60479;BME280;46321;48.398;11.754;2023-02-04T04:19:21;97728.81;;;3.49;80.54
60479;BME280;46321;48.398;11.754;2023-02-04T04:21:48;97718.06;;;3.53;80.70
60479;BME280;46321;48.398;11.754;2023-02-04T04:24:14;97720.44;;;3.57;80.80
60479;BME280;46321;48.398;11.754;2023-02-04T04:26:39;97717.94;;;3.55;81.01
60479;BME280;46321;48.398;11.754;2023-02-04T04:29:04;97722.25;;;3.56;81.42
60479;BME280;46321;48.398;11.754;2023-02-04T04:31:29;97713.84;;;3.51;81.33
60479;BME280;46321;48.398;11.754;2023-02-04T04:33:55;97721.88;;;3.48;81.32
60479;BME280;46321;48.398;11.754;2023-02-04T04:36:20;97725.78;;;3.55;81.22
60479;BME280;46321;48.398;11.754;2023-02-04T04:38:45;97729.78;;;3.61;80.79
60479;BME280;46321;48.398;11.754;2023-02-04T04:41:10;97734.69;;;3.52;80.05
60479;BME280;46321;48.398;11.754;2023-02-04T04:43:36;97735.19;;;3.45;79.91
60479;BME280;46321;48.398;11.754;2023-02-04T04:46:01;97748.38;;;3.43;80.37
60479;BME280;46321;48.398;11.754;2023-02-04T04:48:26;97745.44;;;3.48;80.15
60479;BME280;46321;48.398;11.754;2023-02-04T04:50:52;97747.72;;;3.39;80.42
60479;BME280;46321;48.398;11.754;2023-02-04T04:53:17;97745.13;;;3.39;81.02
60479;BME280;46321;48.398;11.754;2023-02-04T04:55:42;97753.38;;;3.33;81.39
60479;BME280;46321;48.398;11.754;2023-02-04T04:58:08;97747.09;;;3.36;81.30
60479;BME280;46321;48.398;11.754;2023-02-04T05:00:33;97754.44;;;3.43;81.27
60479;BME280;46321;48.398;11.754;2023-02-04T05:02:58;97754.41;;;3.30;81.49
60479;BME280;46321;48.398;11.754;2023-02-04T05:05:24;97766.41;;;3.48;81.15
60479;BME280;46321;48.398;11.754;2023-02-04T05:07:49;97768.38;;;3.44;81.19
60479;BME280;46321;48.398;11.754;2023-02-04T05:10:15;97775.22;;;3.47;81.23
60479;BME280;46321;48.398;11.754;2023-02-04T05:12:40;97781.28;;;3.47;80.75
60479;BME280;46321;48.398;11.754;2023-02-04T05:15:06;97784.53;;;3.51;80.86
60479;BME280;46321;48.398;11.754;2023-02-04T05:17:31;97781.59;;;3.42;81.14
60479;BME280;46321;48.398;11.754;2023-02-04T05:19:57;97796.16;;;3.47;80.90
60479;BME280;46321;48.398;11.754;2023-02-04T05:22:22;97800.66;;;3.45;80.80
60479;BME280;46321;48.398;11.754;2023-02-04T05:24:47;97798.66;;;3.48;80.91
60479;BME280;46321;48.398;11.754;2023-02-04T05:27:13;97797.63;;;3.51;80.19
60479;BME280;46321;48.398;11.754;2023-02-04T05:29:38;97796.34;;;3.43;79.76
60479;BME280;46321;48.398;11.754;2023-02-04T05:32:03;97794.06;;;3.52;79.23
60479;BME280;46321;48.398;11.754;2023-02-04T05:34:29;97799.97;;;3.55;78.89
60479;BME280;46321;48.398;11.754;2023-02-04T05:36:54;97799.09;;;3.55;78.54
60479;BME280;46321;48.398;11.754;2023-02-04T05:39:19;97800.16;;;3.52;78.88
60479;BME280;46321;48.398;11.754;2023-02-04T05:41:45;97800.88;;;3.54;78.57
60479;BME280;46321;48.398;11.754;2023-02-04T05:44:10;97812.03;;;3.58;78.57
60479;BME280;46321;48.398;11.754;2023-02-04T05:46:35;97813.97;;;3.54;78.36
60479;BME280;46321;48.398;11.754;2023-02-04T05:49:01;97824.56;;;3.53;78.31
60479;BME280;46321;48.398;11.754;2023-02-04T05:51:27;97830.44;;;3.57;78.06
60479;BME280;46321;48.398;11.754;2023-02-04T05:53:52;97827.81;;;3.57;77.90
60479;BME280;46321;48.398;11.754;2023-02-04T05:56:17;97843.34;;;3.60;77.86
60479;BME280;46321;48.398;11.754;2023-02-04T05:58:43;97850.25;;;3.61;77.90
60479;BME280;46321;48.398;11.754;2023-02-04T06:01:08;97846.88;;;3.59;77.77
60479;BME280;46321;48.398;11.754;2023-02-04T06:03:33;97838.72;;;3.63;77.44
60479;BME280;46321;48.398;11.754;2023-02-04T06:05:58;97853.63;;;3.63;77.37
60479;BME280;46321;48.398;11.754;2023-02-04T06:08:24;97861.31;;;3.51;78.04
60479;BME280;46321;48.398;11.754;2023-02-04T06:10:49;97859.97;;;3.59;77.43
60479;BME280;46321;48.398;11.754;2023-02-04T06:13:14;97866.28;;;3.56;76.95
60479;BME280;46321;48.398;11.754;2023-02-04T06:15:40;97871.75;;;3.66;76.86
60479;BME280;46321;48.398;11.754;2023-02-04T06:18:05;97881.88;;;3.58;77.20
60479;BME280;46321;48.398;11.754;2023-02-04T06:20:31;97877.66;;;3.55;77.35
60479;BME280;46321;48.398;11.754;2023-02-04T06:22:56;97875.97;;;3.54;77.97
60479;BME280;46321;48.398;11.754;2023-02-04T06:25:22;97871.41;;;3.58;76.90
60479;BME280;46321;48.398;11.754;2023-02-04T06:27:47;97877.47;;;3.58;77.24
60479;BME280;46321;48.398;11.754;2023-02-04T06:30:13;97880.19;;;3.57;77.27
60479;BME280;46321;48.398;11.754;2023-02-04T06:32:39;97881.13;;;3.55;77.17
60479;BME280;46321;48.398;11.754;2023-02-04T06:35:04;97883.66;;;3.57;77.36
60479;BME280;46321;48.398;11.754;2023-02-04T06:37:30;97894.88;;;3.59;77.23
60479;BME280;46321;48.398;11.754;2023-02-04T06:39:55;97900.94;;;3.60;77.22
60479;BME280;46321;48.398;11.754;2023-02-04T06:42:22;97893.94;;;3.60;77.57
60479;BME280;46321;48.398;11.754;2023-02-04T06:44:47;97890.59;;;3.58;78.00
60479;BME280;46321;48.398;11.754;2023-02-04T06:47:12;97883.47;;;3.60;77.25
60479;BME280;46321;48.398;11.754;2023-02-04T06:49:38;97893.84;;;3.62;77.17
60479;BME280;46321;48.398;11.754;2023-02-04T06:52:03;97902.09;;;3.55;77.32
60479;BME280;46321;48.398;11.754;2023-02-04T06:54:29;97899.25;;;3.59;77.71
60479;BME280;46321;48.398;11.754;2023-02-04T06:56:55;97905.06;;;3.64;77.61
60479;BME280;46321;48.398;11.754;2023-02-04T06:59:20;97915.25;;;3.54;77.35
60479;BME280;46321;48.398;11.754;2023-02-04T07:01:45;97917.69;;;3.57;77.02
60479;BME280;46321;48.398;11.754;2023-02-04T07:04:10;97912.16;;;3.62;76.97
60479;BME280;46321;48.398;11.754;2023-02-04T07:06:36;97915.25;;;3.54;77.07
60479;BME280;46321;48.398;11.754;2023-02-04T07:09:01;97924.41;;;3.61;76.36
60479;BME280;46321;48.398;11.754;2023-02-04T07:11:26;97925.81;;;3.67;76.51
60479;BME280;46321;48.398;11.754;2023-02-04T07:13:51;97941.53;;;3.67;76.49
60479;BME280;46321;48.398;11.754;2023-02-04T07:16:17;97932.94;;;3.65;76.53
60479;BME280;46321;48.398;11.754;2023-02-04T07:18:42;97942.34;;;3.67;76.35
60479;BME280;46321;48.398;11.754;2023-02-04T07:21:07;97943.22;;;3.68;76.32
60479;BME280;46321;48.398;11.754;2023-02-04T07:23:32;97945.06;;;3.66;76.67
60479;BME280;46321;48.398;11.754;2023-02-04T07:25:58;97950.59;;;3.76;76.49
60479;BME280;46321;48.398;11.754;2023-02-04T07:28:23;97954.25;;;3.73;76.55
60479;BME280;46321;48.398;11.754;2023-02-04T07:30:49;97959.19;;;3.78;75.96
60479;BME280;46321;48.398;11.754;2023-02-04T07:33:14;97967.34;;;3.73;76.38
60479;BME280;46321;48.398;11.754;2023-02-04T07:35:39;97969.97;;;3.73;76.79
60479;BME280;46321;48.398;11.754;2023-02-04T07:38:05;97977.94;;;3.72;76.57
60479;BME280;46321;48.398;11.754;2023-02-04T07:40:30;97981.56;;;3.69;76.48
60479;BME280;46321;48.398;11.754;2023-02-04T07:42:55;97995.41;;;3.71;75.66
60479;BME280;46321;48.398;11.754;2023-02-04T07:45:21;97998.28;;;3.81;75.42
60479;BME280;46321;48.398;11.754;2023-02-04T07:47:46;97998.38;;;3.80;75.51
60479;BME280;46321;48.398;11.754;2023-02-04T07:50:12;98001.56;;;3.85;75.41
60479;BME280;46321;48.398;11.754;2023-02-04T07:52:37;98011.03;;;3.87;75.91
60479;BME280;46321;48.398;11.754;2023-02-04T07:55:03;98014.94;;;3.95;75.47
60479;BME280;46321;48.398;11.754;2023-02-04T07:57:28;98011.66;;;3.91;75.16
60479;BME280;46321;48.398;11.754;2023-02-04T07:59:54;98012.31;;;3.95;75.14
60479;BME280;46321;48.398;11.754;2023-02-04T08:02:19;98022.78;;;3.95;75.03
60479;BME280;46321;48.398;11.754;2023-02-04T08:04:45;98025.13;;;3.99;74.51
60479;BME280;46321;48.398;11.754;2023-02-04T08:07:10;98018.75;;;4.04;74.60
60479;BME280;46321;48.398;11.754;2023-02-04T08:09:35;98033.72;;;4.01;75.51
60479;BME280;46321;48.398;11.754;2023-02-04T08:12:00;98036.63;;;3.97;75.43
60479;BME280;46321;48.398;11.754;2023-02-04T08:14:26;98041.13;;;4.09;75.32
60479;BME280;46321;48.398;11.754;2023-02-04T08:16:51;98045.03;;;4.17;75.38
60479;BME280;46321;48.398;11.754;2023-02-04T08:19:16;98055.97;;;4.23;74.84
60479;BME280;46321;48.398;11.754;2023-02-04T08:21:45;98052.16;;;4.29;75.09
60479;BME280;46321;48.398;11.754;2023-02-04T08:24:13;98047.63;;;4.31;74.51
60479;BME280;46321;48.398;11.754;2023-02-04T08:26:40;98048.19;;;4.37;74.68
60479;BME280;46321;48.398;11.754;2023-02-04T08:29:05;98052.19;;;4.42;74.05
60479;BME280;46321;48.398;11.754;2023-02-04T08:31:31;98047.41;;;4.49;73.55
60479;BME280;46321;48.398;11.754;2023-02-04T08:33:56;98052.53;;;4.51;73.52
60479;BME280;46321;48.398;11.754;2023-02-04T08:36:22;98066.09;;;4.57;73.49
60479;BME280;46321;48.398;11.754;2023-02-04T08:38:47;98048.88;;;4.53;73.26
60479;BME280;46321;48.398;11.754;2023-02-04T08:41:12;98066.03;;;4.59;73.76
60479;BME280;46321;48.398;11.754;2023-02-04T08:43:37;98073.06;;;4.58;73.26
60479;BME280;46321;48.398;11.754;2023-02-04T08:46:03;98079.22;;;4.57;73.06
60479;BME280;46321;48.398;11.754;2023-02-04T08:48:28;98092.00;;;4.49;73.31
60479;BME280;46321;48.398;11.754;2023-02-04T08:50:54;98095.75;;;4.45;73.74
60479;BME280;46321;48.398;11.754;2023-02-04T08:53:19;98108.13;;;4.43;74.53
60479;BME280;46321;48.398;11.754;2023-02-04T08:55:44;98101.88;;;4.01;74.47
60479;BME280;46321;48.398;11.754;2023-02-04T08:58:10;98107.13;;;3.87;74.73
60479;BME280;46321;48.398;11.754;2023-02-04T09:00:35;98126.44;;;3.70;75.60
60479;BME280;46321;48.398;11.754;2023-02-04T09:03:00;98136.63;;;3.60;76.21
60479;BME280;46321;48.398;11.754;2023-02-04T09:05:25;98139.69;;;3.52;75.77
60479;BME280;46321;48.398;11.754;2023-02-04T09:07:51;98142.41;;;3.50;76.15
60479;BME280;46321;48.398;11.754;2023-02-04T09:10:16;98146.84;;;3.64;76.03
60479;BME280;46321;48.398;11.754;2023-02-04T09:12:41;98151.72;;;3.71;76.31
60479;BME280;46321;48.398;11.754;2023-02-04T09:15:09;98158.47;;;3.75;76.16
60479;BME280;46321;48.398;11.754;2023-02-04T09:17:34;98150.59;;;3.75;76.26
60479;BME280;46321;48.398;11.754;2023-02-04T09:20:00;98155.84;;;3.75;77.12
60479;BME280;46321;48.398;11.754;2023-02-04T09:22:25;98152.03;;;3.81;76.47
60479;BME280;46321;48.398;11.754;2023-02-04T09:24:51;98149.69;;;3.91;76.43
60479;BME280;46321;48.398;11.754;2023-02-04T09:27:16;98148.50;;;3.96;76.55
60479;BME280;46321;48.398;11.754;2023-02-04T09:29:41;98145.56;;;3.86;76.47
60479;BME280;46321;48.398;11.754;2023-02-04T09:32:07;98146.41;;;4.01;76.15
60479;BME280;46321;48.398;11.754;2023-02-04T09:34:32;98154.00;;;4.06;75.82
60479;BME280;46321;48.398;11.754;2023-02-04T09:36:57;98156.34;;;4.11;75.02
60479;BME280;46321;48.398;11.754;2023-02-04T09:39:22;98164.78;;;4.16;74.73
60479;BME280;46321;48.398;11.754;2023-02-04T09:41:49;98167.41;;;4.16;73.61
60479;BME280;46321;48.398;11.754;2023-02-04T09:44:17;98168.22;;;4.17;72.71
60479;BME280;46321;48.398;11.754;2023-02-04T09:46:48;98180.97;;;4.08;71.85
60479;BME280;46321;48.398;11.754;2023-02-04T09:49:15;98182.75;;;4.22;71.84
60479;BME280;46321;48.398;11.754;2023-02-04T09:51:41;98185.94;;;4.28;72.18
60479;BME280;46321;48.398;11.754;2023-02-04T09:54:12;98188.75;;;4.54;72.20
60479;BME280;46321;48.398;11.754;2023-02-04T09:56:38;98184.66;;;4.77;70.90
60479;BME280;46321;48.398;11.754;2023-02-04T09:59:10;98192.06;;;5.27;69.68
60479;BME280;46321;48.398;11.754;2023-02-04T10:01:36;98189.97;;;5.33;67.42
60479;BME280;46321;48.398;11.754;2023-02-04T10:04:01;98183.44;;;5.25;67.21
60479;BME280;46321;48.398;11.754;2023-02-04T10:06:27;98186.66;;;5.16;67.67
60479;BME280;46321;48.398;11.754;2023-02-04T10:08:53;98199.16;;;4.98;67.60
60479;BME280;46321;48.398;11.754;2023-02-04T10:11:19;98204.06;;;4.89;68.12
60479;BME280;46321;48.398;11.754;2023-02-04T10:13:48;98213.28;;;4.67;68.22
60479;BME280;46321;48.398;11.754;2023-02-04T10:16:17;98215.22;;;4.64;68.38
60479;BME280;46321;48.398;11.754;2023-02-04T10:18:44;98215.63;;;4.43;68.92
60479;BME280;46321;48.398;11.754;2023-02-04T10:21:21;98210.66;;;4.38;68.59
60479;BME280;46321;48.398;11.754;2023-02-04T10:23:55;98212.34;;;4.54;68.36
60479;BME280;46321;48.398;11.754;2023-02-04T10:26:21;98210.94;;;4.48;67.67
60479;BME280;46321;48.398;11.754;2023-02-04T10:28:47;98208.69;;;4.56;67.48
60479;BME280;46321;48.398;11.754;2023-02-04T10:31:37;98209.97;;;4.64;67.29
60479;BME280;46321;48.398;11.754;2023-02-04T10:36:29;98209.88;;;4.80;67.90
60479;BME280;46321;48.398;11.754;2023-02-04T10:39:08;98215.31;;;4.91;66.83
60479;BME280;46321;48.398;11.754;2023-02-04T10:41:36;98210.72;;;4.80;67.94
60479;BME280;46321;48.398;11.754;2023-02-04T10:44:09;98208.28;;;4.92;67.73
60479;BME280;46321;48.398;11.754;2023-02-04T10:46:35;98213.88;;;5.00;67.08
60479;BME280;46321;48.398;11.754;2023-02-04T10:49:03;98211.97;;;4.75;66.98
60479;BME280;46321;48.398;11.754;2023-02-04T10:51:29;98212.78;;;4.75;66.60
60479;BME280;46321;48.398;11.754;2023-02-04T10:53:55;98212.13;;;4.86;66.23
60479;BME280;46321;48.398;11.754;2023-02-04T10:56:39;98205.47;;;4.80;66.64
60479;BME280;46321;48.398;11.754;2023-02-04T10:59:04;98220.09;;;4.85;66.65
60479;BME280;46321;48.398;11.754;2023-02-04T11:01:30;98211.59;;;4.81;65.68
60479;BME280;46321;48.398;11.754;2023-02-04T11:03:56;98208.28;;;4.92;65.91
60479;BME280;46321;48.398;11.754;2023-02-04T11:06:23;98209.38;;;5.02;64.58
60479;BME280;46321;48.398;11.754;2023-02-04T11:08:49;98198.91;;;4.88;64.74
60479;BME280;46321;48.398;11.754;2023-02-04T11:11:19;98199.94;;;4.85;65.12
60479;BME280;46321;48.398;11.754;2023-02-04T11:18:45;98210.72;;;5.23;64.56
60479;BME280;46321;48.398;11.754;2023-02-04T11:21:22;98202.88;;;5.36;64.43
60479;BME280;46321;48.398;11.754;2023-02-04T11:23:48;98200.53;;;5.46;63.47
60479;BME280;46321;48.398;11.754;2023-02-04T11:26:16;98197.91;;;5.46;63.00
60479;BME280;46321;48.398;11.754;2023-02-04T11:28:50;98200.06;;;5.39;62.42
60479;BME280;46321;48.398;11.754;2023-02-04T11:33:43;98201.75;;;5.40;63.97
60479;BME280;46321;48.398;11.754;2023-02-04T11:36:10;98209.44;;;5.43;63.68
60479;BME280;46321;48.398;11.754;2023-02-04T11:38:37;98211.38;;;5.67;63.30
60479;BME280;46321;48.398;11.754;2023-02-04T11:41:04;98209.19;;;5.33;62.16
60479;BME280;46321;48.398;11.754;2023-02-04T11:43:33;98208.88;;;5.38;61.97
60479;BME280;46321;48.398;11.754;2023-02-04T11:46:11;98211.19;;;5.30;63.20
60479;BME280;46321;48.398;11.754;2023-02-04T11:48:37;98210.88;;;5.34;62.56
60479;BME280;46321;48.398;11.754;2023-02-04T11:51:11;98202.56;;;5.27;62.41
60479;BME280;46321;48.398;11.754;2023-02-04T11:53:37;98196.75;;;5.22;62.36
60479;BME280;46321;48.398;11.754;2023-02-04T11:56:02;98194.56;;;5.29;62.38
60479;BME280;46321;48.398;11.754;2023-02-04T11:58:29;98192.25;;;5.24;62.27
60479;BME280;46321;48.398;11.754;2023-02-04T12:00:55;98194.78;;;5.26;62.62
60479;BME280;46321;48.398;11.754;2023-02-04T12:03:26;98193.41;;;5.33;62.39
60479;BME280;46321;48.398;11.754;2023-02-04T12:05:53;98190.66;;;5.63;62.05
60479;BME280;46321;48.398;11.754;2023-02-04T12:11:09;98192.50;;;5.88;61.14
60479;BME280;46321;48.398;11.754;2023-02-04T12:13:56;98183.78;;;5.88;60.15
60479;BME280;46321;48.398;11.754;2023-02-04T12:16:22;98188.41;;;5.84;60.70
60479;BME280;46321;48.398;11.754;2023-02-04T12:18:48;98192.63;;;6.00;60.48
60479;BME280;46321;48.398;11.754;2023-02-04T12:21:14;98189.31;;;6.24;60.60
60479;BME280;46321;48.398;11.754;2023-02-04T12:23:39;98185.81;;;6.36;61.02
60479;BME280;46321;48.398;11.754;2023-02-04T12:26:06;98183.06;;;6.51;61.07
60479;BME280;46321;48.398;11.754;2023-02-04T12:28:32;98179.06;;;6.45;60.01
60479;BME280;46321;48.398;11.754;2023-02-04T12:30:57;98181.88;;;6.68;59.74
60479;BME280;46321;48.398;11.754;2023-02-04T12:33:22;98182.41;;;6.73;58.18
60479;BME280;46321;48.398;11.754;2023-02-04T12:35:48;98178.09;;;6.59;57.35
60479;BME280;46321;48.398;11.754;2023-02-04T12:38:13;98176.25;;;6.86;58.04
60479;BME280;46321;48.398;11.754;2023-02-04T12:40:39;98187.09;;;6.81;56.36
60479;BME280;46321;48.398;11.754;2023-02-04T12:43:04;98186.00;;;6.97;56.52
60479;BME280;46321;48.398;11.754;2023-02-04T12:45:30;98180.69;;;6.85;56.11
60479;BME280;46321;48.398;11.754;2023-02-04T12:47:56;98183.91;;;6.64;55.50
60479;BME280;46321;48.398;11.754;2023-02-04T12:50:21;98175.28;;;6.36;55.94
60479;BME280;46321;48.398;11.754;2023-02-04T12:52:56;98184.56;;;6.29;55.89
60479;BME280;46321;48.398;11.754;2023-02-04T12:55:23;98179.41;;;6.27;55.46
60479;BME280;46321;48.398;11.754;2023-02-04T12:57:49;98178.44;;;6.02;55.75
60479;BME280;46321;48.398;11.754;2023-02-04T13:00:16;98190.09;;;5.98;56.24
60479;BME280;46321;48.398;11.754;2023-02-04T13:02:42;98177.34;;;5.79;55.58
60479;BME280;46321;48.398;11.754;2023-02-04T13:05:08;98190.38;;;5.67;56.06
60479;BME280;46321;48.398;11.754;2023-02-04T13:07:33;98194.16;;;5.63;56.03